Flight Track Log - Related Links

Times and Time Zones

All times are in EDT time to prevent confusion due to time zone crossing. See the EJA846 flight status page for this flight to view local times or setup timezone preferences in your user account.

Time Position Orientation Groundspeed Altitude Reporting Facility
EDT Latitude Longitude Course Direction KTS MPH feet Rate Location/Type
Tue 09:03:53 PM 32.9000 -97.0333 180° South 179 206 1,200  Level Dallas / Fort Worth TRACON
Tue 09:04:30 PM 32.8667 -97.0333 180° South 213 245 2,900 2,907 Climbing Dallas / Fort Worth TRACON
Tue 09:05:30 PM 32.8000 -97.0333 180° South 255 293 5,900 3,076 Climbing Dallas / Fort Worth TRACON
Tue 09:06:29 PM 32.7167 -97.0333 180° South 276 318 9,000 1,828 Climbing Dallas / Fort Worth TRACON
Tue 09:08:24 PM 32.5489 -96.9969 170° South 343 395 11,200 1,474 Climbing Fort Worth Center
Tue 09:09:24 PM 32.4653 -96.9775 169° South 343 395 13,300 1,983 Climbing Fort Worth Center
Tue 09:10:25 PM 32.3586 -96.9558 170° South 349 402 15,200 1,800 Climbing Fort Worth Center
Tue 09:11:24 PM 32.2731 -96.9367 169° South 354 407 16,900 1,765 Climbing Fort Worth Center
Tue 09:12:24 PM 32.1644 -96.9200 173° South 354 407 18,700 1,686 Climbing Fort Worth Center
Tue 09:13:25 PM 32.0642 -96.9011 171° South 354 407 20,300 1,388 Climbing Fort Worth Center
Tue 09:14:25 PM 31.9617 -96.8844 172° South 360 414 21,500 1,261 Climbing Fort Worth Center
Tue 09:15:24 PM 31.8594 -96.8656 171° South 376 433 22,800 978 Climbing Fort Worth Center
Tue 09:15:57 PM 31.8111 -96.8567 171° South 381 438 23,000 126 Climbing Houston Center
Tue 09:16:59 PM 31.6969 -96.8369 172° South 402 463 23,000  Level Houston Center
Tue 09:18:00 PM 31.5789 -96.8169 172° South 419 482 23,000  Level Houston Center
Tue 09:19:02 PM 31.4594 -96.7942 171° South 427 491 23,000  Level Houston Center
Tue 09:20:03 PM 31.3461 -96.7389 157° South 433 498 23,000  Level Houston Center
Tue 09:21:05 PM 31.2342 -96.6853 158° South 430 495 23,000  Level Houston Center
Tue 09:22:06 PM 31.1019 -96.6233 158° South 431 496 23,000  Level Houston Center
Tue 09:23:08 PM 30.9906 -96.5708 158° South 428 493 23,000  Level Houston Center
Tue 09:24:10 PM 30.8811 -96.5206 158° South 419 482 23,000 -195 Level Houston Center
Tue 09:25:11 PM 30.7706 -96.4675 158° South 422 486 22,600 -1,317 Descending Houston Center
Tue 09:26:13 PM 30.6592 -96.4161 158° South 424 488 20,300 -2,195 Descending Houston Center
Tue 09:27:14 PM 30.5508 -96.3656 158° South 417 480 18,100 -2,168 Descending Houston Center
Tue 09:28:12 PM 30.4481 -96.3189 159° South 377 434 16,000 -1,916 Descending Houston Center
Tue 09:29:13 PM 30.3753 -96.2519 142° Southeast 322 371 14,300 -1,574 Descending Houston Center
Tue 09:30:14 PM 30.2972 -96.2219 162° South 288 331 12,800 -1,603 Descending Houston Center
Tue 09:31:09 PM 30.2142 -96.2072 171° South 340 391 11,200 -931 Descending Houston Center
Tue 09:32:10 PM 30.1267 -96.1639 157° South 353 406 11,000 -98 Descending Houston Center
Tue 09:33:11 PM 30.0344 -96.1164 156° South 348 400 11,000  Level Houston Center
Tue 09:34:12 PM 29.9439 -96.0639 153° Southeast 349 402 11,000  Level Houston Center
Tue 09:35:13 PM 29.8667 -95.9958 143° Southeast 353 406 11,000 -545 Level Houston Center
Tue 09:36:13 PM 29.7914 -95.9272 142° Southeast 333 383 9,900 -1,412 Descending Houston Center
Tue 09:37:29 PM 29.7175 -95.8594 141° Southeast 297 342 7,800 -1,781 Descending Houston Center
Tue 09:38:21 PM 29.6589 -95.8056 141° Southeast 280 322 6,100 -1,000 Descending Houston Center
Tue 09:39:17 PM 29.6042 -95.7567 142° Southeast 271 312 6,000 -49 Descending Houston Center
Tue 09:40:23 PM 29.5356 -95.7167 153° Southeast 244 281 6,000 -793 Level Houston Center
Tue 09:41:18 PM 29.4758 -95.6828 154° Southeast 261 300 4,400 -1,552 Descending Houston Center
Tue 09:42:19 PM 29.4464 -95.6117 115° Southeast 237 273 3,000 -694 Descending Houston Center
Tue 09:43:19 PM 29.4467 -95.5447 90° East 232 267 3,000 -472 Level Houston Center
Tue 09:44:26 PM 29.4753 -95.4669 67° East 232 267 2,000 -469 Descending Houston Center
Tue 09:45:27 PM 29.5153 -95.4214 45° Northeast 207 238 2,000  Level Houston Center
Tue 09:46:28 PM 29.5572 -95.3753 44° Northeast 207 238 2,000 -362 Level Houston Center
Tue 09:47:23 PM 29.5917 -95.3378 43° Northeast 180 207 1,300 -744 Descending Houston Center
Tue 09:48:29 PM 29.6203 -95.3078 42° Northeast 110 127 500 -511 Descending Houston Center
Tue 09:49:44 PM 29.6489 -95.2756 44° Northeast 131 151 100 -320 Descending Houston Center
Tue 09:51:00 PM 29.6454 -95.2789 115° Southeast  Level Estimated

Login

Don't have an account? Register now (free) for customized features, flight alerts, and more!